Time;durP1;ratioP1;P1;durP2;ratioP2;P2;SDS_P1;SDS_P2;PMS_P1;PMS_P2;Temp;Humidity;BMP_temperature;BMP_pressure;BME280_temperature;BME280_humidity;BME280_pressure;Samples;Min_cycle;Max_cycle;Signal;HPM_P1;HPM_P2
2022/02/13 00:00:27;;;;;;;14.00;6.00;;;0.30;99.90;;;;;;4972726;28;20027;-76
2022/02/13 00:02:53;;;;;;;12.20;6.00;;;0.30;99.90;;;;;;4973401;28;20041;-76
2022/02/13 00:05:18;;;;;;;12.40;6.40;;;0.30;99.90;;;;;;4971874;28;20041;-76
2022/02/13 00:07:44;;;;;;;13.00;5.97;;;0.40;99.90;;;;;;4972068;28;20455;-77
2022/02/13 00:10:12;;;;;;;13.47;6.30;;;0.30;99.90;;;;;;4972576;28;20026;-77
2022/02/13 00:12:38;;;;;;;12.80;6.13;;;0.30;99.90;;;;;;4971986;28;20023;-77
2022/02/13 00:15:06;;;;;;;13.80;6.53;;;0.40;99.90;;;;;;4972770;28;20487;-77
2022/02/13 00:17:32;;;;;;;11.73;5.73;;;0.40;99.90;;;;;;4977965;28;20034;-77
2022/02/13 00:19:59;;;;;;;14.33;6.63;;;0.40;99.90;;;;;;4972205;28;20098;-77
2022/02/13 00:22:25;;;;;;;14.63;6.33;;;0.40;99.90;;;;;;4974304;28;20106;-77
2022/02/13 00:24:51;;;;;;;12.40;6.77;;;0.40;99.90;;;;;;4972180;28;20474;-77
2022/02/13 00:27:16;;;;;;;12.83;6.73;;;0.40;99.90;;;;;;4973242;28;20034;-78
2022/02/13 00:29:42;;;;;;;11.17;6.77;;;0.30;99.90;;;;;;4974257;28;20023;-78
2022/02/13 00:32:09;;;;;;;15.63;6.40;;;0.30;99.90;;;;;;4973716;28;20027;-78
2022/02/13 00:34:35;;;;;;;14.33;6.13;;;0.30;99.90;;;;;;4972631;28;20471;-77
2022/02/13 00:37:01;;;;;;;10.37;6.03;;;0.30;99.90;;;;;;4973311;28;20031;-78
2022/02/13 00:39:27;;;;;;;13.33;6.20;;;0.30;99.90;;;;;;4975549;28;20061;-79
2022/02/13 00:41:53;;;;;;;12.37;5.97;;;0.40;99.90;;;;;;4972166;28;20085;-78
2022/02/13 00:44:19;;;;;;;15.17;6.20;;;0.50;99.90;;;;;;4972962;28;20053;-77
2022/02/13 00:46:45;;;;;;;12.83;5.87;;;0.60;99.90;;;;;;4973685;28;20023;-78
2022/02/13 00:49:10;;;;;;;12.57;6.20;;;0.60;99.90;;;;;;4974018;28;20019;-77
2022/02/13 00:51:36;;;;;;;11.57;5.87;;;0.60;99.90;;;;;;4972116;28;20031;-76
2022/02/13 00:54:02;;;;;;;13.13;6.93;;;0.60;99.90;;;;;;4972694;28;20019;-75
2022/02/13 00:56:27;;;;;;;11.47;6.17;;;0.50;99.90;;;;;;4972530;28;20035;-78
2022/02/13 00:58:53;;;;;;;11.57;6.03;;;0.40;99.90;;;;;;4971815;28;20034;-78
2022/02/13 01:01:19;;;;;;;13.60;6.50;;;0.40;99.90;;;;;;4972450;28;20031;-78
2022/02/13 01:03:45;;;;;;;12.70;6.53;;;0.30;99.90;;;;;;4972933;28;20363;-78
2022/02/13 01:06:12;;;;;;;12.00;6.10;;;0.40;99.90;;;;;;4972531;28;20029;-78
2022/02/13 01:08:38;;;;;;;16.80;6.47;;;0.40;99.90;;;;;;4971327;28;20027;-77
2022/02/13 01:11:05;;;;;;;14.70;6.50;;;0.30;99.90;;;;;;4972639;28;20027;-78
2022/02/13 01:13:31;;;;;;;19.67;7.27;;;0.20;99.90;;;;;;4972264;28;20027;-77
2022/02/13 01:15:57;;;;;;;13.93;6.80;;;0.20;99.90;;;;;;4972750;28;20033;-77
2022/02/13 01:18:24;;;;;;;14.33;6.53;;;0.20;99.90;;;;;;4980744;28;20050;-78
2022/02/13 01:20:52;;;;;;;12.17;6.60;;;0.20;99.90;;;;;;4978684;28;20026;-77
2022/02/13 01:23:18;;;;;;;13.23;6.67;;;0.10;99.90;;;;;;4979196;28;20452;-78
2022/02/13 01:25:44;;;;;;;14.03;7.10;;;0.00;99.90;;;;;;4978794;28;20383;-75
2022/02/13 01:28:10;;;;;;;11.00;6.23;;;0.00;99.90;;;;;;4996775;28;20022;-75
2022/02/13 01:30:36;;;;;;;14.63;6.30;;;0.00;99.90;;;;;;4979167;28;20092;-75
2022/02/13 01:33:02;;;;;;;13.07;6.67;;;-0.10;99.90;;;;;;4996501;28;20478;-75
2022/02/13 01:35:28;;;;;;;16.13;6.40;;;0.00;99.90;;;;;;4978921;28;20026;-75
2022/02/13 01:37:54;;;;;;;12.67;6.10;;;0.00;99.90;;;;;;4978716;28;20113;-76
2022/02/13 01:40:19;;;;;;;14.87;6.10;;;0.00;99.90;;;;;;4979249;28;20352;-76
2022/02/13 01:42:45;;;;;;;13.67;6.20;;;0.00;99.90;;;;;;4978662;28;20467;-76
2022/02/13 01:45:11;;;;;;;11.60;6.03;;;-0.10;99.90;;;;;;4979508;28;20049;-76
2022/02/13 01:47:38;;;;;;;10.00;5.53;;;-0.10;99.90;;;;;;4978546;28;20022;-76
2022/02/13 01:50:07;;;;;;;11.53;5.57;;;-0.10;99.90;;;;;;4996514;28;20400;-76
2022/02/13 01:52:33;;;;;;;11.67;6.30;;;-0.10;99.90;;;;;;4996571;28;20249;-75
2022/02/13 01:54:59;;;;;;;14.77;5.27;;;-0.10;99.90;;;;;;4996009;28;20142;-78
2022/02/13 01:57:26;;;;;;;11.50;5.30;;;0.00;99.90;;;;;;4995931;28;20059;-79
2022/02/13 01:59:53;;;;;;;14.37;5.80;;;-0.10;99.90;;;;;;4978528;28;20031;-79
2022/02/13 02:02:18;;;;;;;12.00;5.47;;;-0.10;99.90;;;;;;4978934;28;20022;-78
2022/02/13 02:04:44;;;;;;;10.17;5.20;;;-0.10;99.90;;;;;;4978485;28;20093;-78
2022/02/13 02:07:10;;;;;;;9.23;5.33;;;-0.10;99.90;;;;;;4978842;28;20033;-79
2022/02/13 02:09:35;;;;;;;11.77;4.87;;;-0.10;99.90;;;;;;4978867;28;20405;-78
2022/02/13 02:12:05;;;;;;;8.53;4.97;;;-0.10;99.90;;;;;;4995693;28;20486;-79
2022/02/13 02:14:31;;;;;;;8.97;4.37;;;-0.10;99.90;;;;;;4978692;28;20023;-78
2022/02/13 02:16:57;;;;;;;11.10;5.27;;;0.00;99.90;;;;;;4978262;28;20069;-79
2022/02/13 02:19:23;;;;;;;9.67;4.60;;;0.00;99.90;;;;;;4975087;28;20114;-79
2022/02/13 02:21:48;;;;;;;11.37;5.13;;;0.10;99.90;;;;;;4976185;28;20031;-77
2022/02/13 02:24:16;;;;;;;8.87;5.00;;;0.10;99.90;;;;;;4976628;28;20586;-79
2022/02/13 02:26:43;;;;;;;8.17;5.03;;;0.00;99.90;;;;;;4974558;28;20038;-78
2022/02/13 02:29:09;;;;;;;12.00;5.17;;;0.00;99.90;;;;;;4976511;28;20022;-79
2022/02/13 02:31:35;;;;;;;9.23;5.03;;;-0.10;99.90;;;;;;4976365;28;20106;-79
2022/02/13 02:34:01;;;;;;;9.07;5.50;;;-0.10;99.90;;;;;;4975832;28;20027;-79
2022/02/13 02:36:27;;;;;;;9.50;4.63;;;-0.10;99.90;;;;;;4975021;28;20031;-78
2022/02/13 02:38:52;;;;;;;9.80;5.07;;;-0.10;99.90;;;;;;4974606;28;20050;-78
2022/02/13 02:41:18;;;;;;;9.43;4.83;;;-0.10;99.90;;;;;;4974500;28;20361;-77
2022/02/13 02:43:44;;;;;;;9.90;4.97;;;0.00;99.90;;;;;;4975209;28;20150;-77
2022/02/13 02:46:11;;;;;;;8.10;4.63;;;0.00;99.90;;;;;;4975937;28;20026;-78
2022/02/13 02:48:37;;;;;;;9.67;5.37;;;0.00;99.90;;;;;;4974755;28;20026;-78
2022/02/13 02:51:04;;;;;;;11.40;5.10;;;0.00;99.90;;;;;;4974093;28;20037;-78
2022/02/13 02:53:30;;;;;;;11.00;5.00;;;0.00;99.90;;;;;;4974720;28;20023;-78
2022/02/13 02:55:56;;;;;;;8.97;5.33;;;0.10;99.90;;;;;;4973660;28;20110;-78
2022/02/13 02:58:22;;;;;;;9.93;5.30;;;0.10;99.90;;;;;;4975575;28;20162;-78
2022/02/13 03:00:50;;;;;;;12.07;6.20;;;0.00;99.90;;;;;;4975254;28;20058;-78
2022/02/13 03:03:16;;;;;;;20.53;7.87;;;0.00;99.90;;;;;;4974758;28;20073;-78
2022/02/13 03:05:42;;;;;;;18.77;8.00;;;0.10;99.90;;;;;;4975359;28;20105;-78
2022/02/13 03:08:08;;;;;;;22.13;8.73;;;0.10;99.90;;;;;;4975528;28;20464;-78
2022/02/13 03:10:34;;;;;;;37.93;14.00;;;0.10;99.90;;;;;;4974252;28;20135;-78
2022/02/13 03:13:00;;;;;;;40.97;14.53;;;0.20;99.90;;;;;;4974926;28;20163;-78
2022/02/13 03:15:25;;;;;;;26.30;8.90;;;0.10;99.90;;;;;;4974164;28;20022;-78
2022/02/13 03:17:51;;;;;;;32.23;11.80;;;0.10;99.90;;;;;;4973568;28;20456;-78
2022/02/13 03:20:16;;;;;;;38.70;13.93;;;0.20;99.90;;;;;;4974124;28;20057;-77
2022/02/13 03:22:42;;;;;;;20.77;8.90;;;0.10;99.90;;;;;;4975232;28;20026;-78
2022/02/13 03:25:08;;;;;;;19.10;7.93;;;0.10;99.90;;;;;;4973928;28;20054;-78
2022/02/13 03:27:34;;;;;;;20.23;8.20;;;0.10;99.90;;;;;;4975316;28;20045;-78
2022/02/13 03:29:59;;;;;;;11.03;5.60;;;0.00;99.90;;;;;;4974808;28;20026;-78
2022/02/13 03:32:25;;;;;;;12.77;5.23;;;0.00;99.90;;;;;;4973851;28;20023;-78
2022/02/13 03:34:51;;;;;;;7.83;4.80;;;0.00;99.90;;;;;;4973480;28;20037;-78
2022/02/13 03:37:16;;;;;;;11.97;5.07;;;0.00;99.90;;;;;;4973969;28;20026;-78
2022/02/13 03:39:43;;;;;;;10.30;4.60;;;0.00;99.90;;;;;;4974274;28;20019;-78
2022/02/13 03:42:09;;;;;;;13.57;5.33;;;0.00;99.90;;;;;;4973336;28;20023;-78
2022/02/13 03:44:36;;;;;;;9.90;4.97;;;0.10;99.90;;;;;;4973454;28;20026;-78
2022/02/13 03:47:03;;;;;;;10.37;4.83;;;0.10;99.90;;;;;;4974083;28;20082;-78
2022/02/13 03:49:29;;;;;;;8.03;4.63;;;0.10;99.90;;;;;;4974953;28;20031;-78
2022/02/13 03:51:55;;;;;;;9.67;4.73;;;0.10;99.90;;;;;;4973395;28;20117;-78
2022/02/13 03:54:21;;;;;;;8.97;4.63;;;0.10;99.90;;;;;;4974647;28;20408;-78
2022/02/13 03:56:47;;;;;;;7.70;4.43;;;0.10;99.90;;;;;;4972994;28;20041;-77
2022/02/13 03:59:13;;;;;;;9.93;4.57;;;0.20;99.90;;;;;;4974638;28;20019;-78
2022/02/13 04:01:39;;;;;;;8.53;4.23;;;0.20;99.90;;;;;;4973477;28;20027;-78
2022/02/13 04:04:05;;;;;;;9.80;5.03;;;0.10;99.90;;;;;;4973089;28;20232;-78
2022/02/13 04:06:31;;;;;;;9.47;4.53;;;0.10;99.90;;;;;;4974465;28;20029;-78
2022/02/13 04:08:56;;;;;;;8.87;4.03;;;0.00;99.90;;;;;;4972715;28;20054;-78
2022/02/13 04:11:22;;;;;;;9.83;4.40;;;0.10;99.90;;;;;;4973489;28;20045;-78
2022/02/13 04:13:48;;;;;;;10.13;5.23;;;0.10;99.90;;;;;;4972602;28;20027;-78
2022/02/13 04:16:13;;;;;;;7.67;4.33;;;0.10;99.90;;;;;;4973401;28;20428;-78
2022/02/13 04:18:39;;;;;;;9.83;4.47;;;0.10;99.90;;;;;;4972849;28;20103;-78
2022/02/13 04:21:06;;;;;;;8.93;4.87;;;0.10;99.90;;;;;;4972234;28;20074;-78
2022/02/13 04:23:32;;;;;;;7.03;4.20;;;0.10;99.90;;;;;;4973194;28;20105;-78
2022/02/13 04:25:59;;;;;;;10.97;4.50;;;0.10;99.90;;;;;;4972814;28;20446;-80
2022/02/13 04:28:25;;;;;;;9.13;4.97;;;0.10;99.90;;;;;;4972928;28;20114;-79
2022/02/13 04:30:50;;;;;;;10.60;4.47;;;0.10;99.90;;;;;;4973774;28;20099;-78
2022/02/13 04:33:16;;;;;;;8.00;4.30;;;0.00;99.90;;;;;;4973114;28;20027;-78
2022/02/13 04:35:42;;;;;;;9.20;5.00;;;0.00;99.90;;;;;;4972960;28;20023;-78
2022/02/13 04:38:08;;;;;;;10.33;4.40;;;0.00;99.90;;;;;;4972128;28;20031;-78
2022/02/13 04:40:33;;;;;;;7.57;4.50;;;-0.10;99.90;;;;;;4973164;28;20031;-78
2022/02/13 04:42:59;;;;;;;7.37;4.37;;;0.00;99.90;;;;;;4973431;28;20532;-78
2022/02/13 04:45:25;;;;;;;11.83;4.67;;;-0.10;99.90;;;;;;4973126;28;20059;-78
2022/02/13 04:47:51;;;;;;;9.50;4.37;;;-0.20;99.90;;;;;;4972361;28;20022;-78
2022/02/13 04:50:21;;;;;;;7.33;4.27;;;-0.10;99.90;;;;;;4972736;28;20059;-78
2022/02/13 04:52:48;;;;;;;11.60;5.00;;;-0.20;99.90;;;;;;4976905;28;20364;-79
2022/02/13 04:55:14;;;;;;;7.97;4.37;;;-0.20;99.90;;;;;;4976726;28;20058;-78
2022/02/13 04:57:40;;;;;;;10.37;4.77;;;-0.10;99.90;;;;;;4976482;28;20069;-79
2022/02/13 05:00:06;;;;;;;11.77;4.97;;;-0.20;99.90;;;;;;4975835;28;20364;-78
2022/02/13 05:02:32;;;;;;;13.40;4.30;;;-0.20;99.90;;;;;;4976586;28;20115;-78
2022/02/13 05:04:58;;;;;;;13.77;5.27;;;-0.30;99.90;;;;;;4975900;28;20058;-77
2022/02/13 05:07:23;;;;;;;7.73;4.20;;;-0.30;99.90;;;;;;4977571;28;20077;-78
2022/02/13 05:09:49;;;;;;;8.87;4.17;;;-0.30;99.90;;;;;;4976221;28;20031;-78
2022/02/13 05:12:15;;;;;;;8.47;4.70;;;-0.30;99.90;;;;;;4977662;28;20019;-78
2022/02/13 05:14:41;;;;;;;7.77;4.13;;;-0.30;99.90;;;;;;4976323;28;20042;-78
2022/02/13 05:17:07;;;;;;;8.87;4.67;;;-0.30;99.90;;;;;;4975972;28;20193;-78
2022/02/13 05:19:33;;;;;;;8.43;4.27;;;-0.30;99.90;;;;;;4976271;28;20054;-78
2022/02/13 05:21:59;;;;;;;10.10;4.60;;;-0.30;99.90;;;;;;4977131;28;20123;-79
2022/02/13 05:24:25;;;;;;;8.13;4.40;;;-0.40;99.90;;;;;;4976290;28;20054;-79
2022/02/13 05:26:50;;;;;;;10.57;4.40;;;-0.40;99.90;;;;;;4975706;28;20054;-77
2022/02/13 05:29:17;;;;;;;7.67;4.03;;;-0.40;99.90;;;;;;4975596;28;20027;-78
2022/02/13 05:31:43;;;;;;;9.00;4.10;;;-0.40;99.90;;;;;;4975527;28;20022;-77
2022/02/13 05:34:12;;;;;;;9.30;4.43;;;-0.50;99.90;;;;;;4976645;28;20026;-78
2022/02/13 05:36:38;;;;;;;9.17;4.50;;;-0.40;99.90;;;;;;4975597;28;20030;-78
2022/02/13 05:39:04;;;;;;;6.30;4.20;;;-0.40;99.90;;;;;;4975238;28;20077;-78
2022/02/13 05:41:29;;;;;;;7.80;4.97;;;-0.40;99.90;;;;;;4976874;28;20026;-78
2022/02/13 05:43:55;;;;;;;10.03;4.57;;;-0.40;99.90;;;;;;4976611;28;20023;-79
2022/02/13 05:46:20;;;;;;;8.07;3.93;;;-0.50;99.90;;;;;;4976063;28;20023;-78
2022/02/13 05:48:46;;;;;;;12.40;4.77;;;-0.50;99.90;;;;;;4975855;28;20435;-79
2022/02/13 05:51:14;;;;;;;10.13;4.10;;;-0.50;99.90;;;;;;4975353;28;20065;-78
2022/02/13 05:53:39;;;;;;;11.03;4.83;;;-0.50;99.90;;;;;;4975266;28;20030;-78
2022/02/13 05:56:06;;;;;;;8.23;4.47;;;-0.60;99.90;;;;;;4974772;28;20030;-78
2022/02/13 05:58:36;;;;;;;8.03;4.53;;;-0.60;99.90;;;;;;4975399;28;20039;-78
2022/02/13 06:01:02;;;;;;;8.17;4.20;;;-0.60;99.90;;;;;;4974868;28;20049;-79
2022/02/13 06:03:28;;;;;;;7.90;4.00;;;-0.60;99.90;;;;;;4975162;28;20475;-78
2022/02/13 06:05:53;;;;;;;8.73;4.17;;;-0.60;99.90;;;;;;4974522;28;20423;-78
2022/02/13 06:08:19;;;;;;;7.90;4.30;;;-0.50;99.90;;;;;;4976467;28;20034;-79
2022/02/13 06:10:44;;;;;;;8.57;4.27;;;-0.60;99.90;;;;;;4975219;28;20026;-79
2022/02/13 06:13:11;;;;;;;9.27;4.37;;;-0.60;99.90;;;;;;4975102;28;20041;-79
2022/02/13 06:15:37;;;;;;;8.43;4.40;;;-0.70;99.90;;;;;;4975335;28;20031;-79
2022/02/13 06:18:02;;;;;;;9.30;4.63;;;-0.70;99.90;;;;;;4975015;28;20038;-79
2022/02/13 06:20:28;;;;;;;8.93;4.23;;;-0.70;99.90;;;;;;4995387;28;20066;-78
2022/02/13 06:22:54;;;;;;;8.47;4.13;;;-0.70;99.90;;;;;;4978064;28;20077;-77
2022/02/13 06:25:19;;;;;;;8.47;4.60;;;-0.70;99.90;;;;;;4995663;28;20375;-78
2022/02/13 06:27:45;;;;;;;9.67;4.43;;;-0.70;99.90;;;;;;4995501;28;20038;-78
2022/02/13 06:30:11;;;;;;;8.93;4.20;;;-0.60;99.90;;;;;;4977635;28;20027;-77
2022/02/13 06:32:37;;;;;;;8.30;4.10;;;-0.60;99.90;;;;;;4978091;28;20028;-77
2022/02/13 06:35:03;;;;;;;8.73;4.37;;;-0.50;99.90;;;;;;4977210;28;20023;-77
2022/02/13 06:37:30;;;;;;;8.40;3.80;;;-0.50;99.90;;;;;;4977841;28;20026;-77
2022/02/13 06:39:57;;;;;;;7.70;4.03;;;-0.50;99.90;;;;;;4977346;28;20062;-77
2022/02/13 06:42:23;;;;;;;8.37;3.67;;;-0.50;99.90;;;;;;4978127;28;20026;-77
2022/02/13 06:44:49;;;;;;;9.30;4.23;;;-0.50;99.90;;;;;;4977915;28;20037;-78
2022/02/13 06:47:16;;;;;;;9.23;4.47;;;-0.50;99.90;;;;;;4977141;28;20344;-77
2022/02/13 06:49:41;;;;;;;8.80;4.50;;;-0.40;99.90;;;;;;4977481;28;20061;-78
2022/02/13 06:52:07;;;;;;;10.83;5.03;;;-0.50;99.90;;;;;;4977038;28;20039;-78
2022/02/13 06:54:33;;;;;;;9.57;4.17;;;-0.50;99.90;;;;;;4977537;28;20076;-77
2022/02/13 06:56:58;;;;;;;8.07;4.17;;;-0.60;99.90;;;;;;4994225;28;20035;-77
2022/02/13 06:59:24;;;;;;;7.60;4.20;;;-0.60;99.90;;;;;;4977485;28;20038;-77
2022/02/13 07:01:50;;;;;;;8.63;4.73;;;-0.70;99.90;;;;;;4994786;28;20440;-78
2022/02/13 07:04:15;;;;;;;9.47;4.80;;;-0.60;99.90;;;;;;4976850;28;20038;-78
2022/02/13 07:06:41;;;;;;;7.63;4.03;;;-0.70;99.90;;;;;;4977534;28;20089;-78
2022/02/13 07:09:07;;;;;;;8.47;4.10;;;-0.60;99.90;;;;;;4976903;28;20077;-78
2022/02/13 07:11:33;;;;;;;8.50;4.60;;;-0.60;99.90;;;;;;4977557;28;20030;-78
2022/02/13 07:13:59;;;;;;;9.30;4.37;;;-0.60;99.90;;;;;;4993375;28;20041;-78
2022/02/13 07:16:25;;;;;;;8.17;4.37;;;-0.60;99.90;;;;;;4977138;28;20031;-78
2022/02/13 07:18:51;;;;;;;8.37;4.53;;;-0.60;99.90;;;;;;4994381;28;20050;-78
2022/02/13 07:21:17;;;;;;;7.87;4.60;;;-0.50;99.90;;;;;;4994185;28;20246;-78
2022/02/13 07:23:43;;;;;;;8.83;4.00;;;-0.50;99.90;;;;;;4977068;28;20089;-78
2022/02/13 07:26:10;;;;;;;7.80;4.33;;;-0.50;99.90;;;;;;4976734;28;20076;-77
2022/02/13 07:31:19;;;;;;;9.43;4.70;;;-0.50;99.90;;;;;;4993789;28;20084;-77
2022/02/13 07:33:45;;;;;;;11.50;4.80;;;-0.50;99.90;;;;;;4976839;28;20467;-77
2022/02/13 07:36:11;;;;;;;8.07;4.07;;;-0.50;99.90;;;;;;4976137;28;20038;-77
2022/02/13 07:38:36;;;;;;;9.97;4.67;;;-0.40;99.90;;;;;;4994082;28;20042;-77
2022/02/13 07:41:02;;;;;;;9.90;4.27;;;-0.40;99.90;;;;;;4975855;28;20120;-77
2022/02/13 07:43:27;;;;;;;6.63;4.20;;;-0.40;99.90;;;;;;4994161;28;20034;-77
2022/02/13 07:45:53;;;;;;;10.47;4.77;;;-0.30;99.90;;;;;;4976936;28;20539;-77
2022/02/13 07:48:18;;;;;;;8.43;4.10;;;-0.30;99.90;;;;;;4993211;28;20080;-77
2022/02/13 07:50:44;;;;;;;7.03;4.53;;;-0.30;99.90;;;;;;4977005;28;20030;-77
2022/02/13 07:53:10;;;;;;;12.30;5.37;;;-0.30;99.90;;;;;;4976001;28;20026;-77
2022/02/13 07:55:35;;;;;;;11.37;4.40;;;-0.20;99.90;;;;;;4976543;28;20085;-77
2022/02/13 07:58:04;;;;;;;9.60;4.30;;;-0.10;99.90;;;;;;4975864;28;20038;-77
2022/02/13 08:00:29;;;;;;;10.60;4.83;;;0.00;99.90;;;;;;4976598;28;20113;-77
2022/02/13 08:02:55;;;;;;;8.30;4.53;;;-0.10;99.90;;;;;;4976583;28;20189;-78
2022/02/13 08:05:21;;;;;;;9.07;4.70;;;0.00;99.90;;;;;;4993347;28;20034;-78
2022/02/13 08:07:48;;;;;;;8.80;4.53;;;0.00;99.90;;;;;;4976308;28;20038;-78
2022/02/13 08:10:14;;;;;;;9.17;4.60;;;0.00;99.90;;;;;;4993165;28;20037;-77
2022/02/13 08:12:40;;;;;;;7.57;4.17;;;0.00;99.90;;;;;;4993772;28;20391;-77
2022/02/13 08:15:06;;;;;;;9.60;4.43;;;0.10;99.90;;;;;;4993374;28;20074;-78
2022/02/13 08:17:32;;;;;;;8.63;4.60;;;0.20;99.90;;;;;;4975907;28;20130;-77
2022/02/13 08:19:59;;;;;;;9.63;4.57;;;0.20;99.90;;;;;;4972763;28;20058;-78
2022/02/13 08:22:25;;;;;;;8.83;4.00;;;0.30;99.90;;;;;;4973635;28;20478;-77
2022/02/13 08:24:50;;;;;;;11.20;4.40;;;0.30;99.90;;;;;;4972774;28;20027;-78
2022/02/13 08:27:16;;;;;;;6.97;4.30;;;0.40;99.90;;;;;;4972465;28;20369;-77
2022/02/13 08:29:42;;;;;;;10.13;5.33;;;0.40;99.90;;;;;;4972946;28;20031;-77
2022/02/13 08:32:08;;;;;;;10.20;4.73;;;0.50;99.90;;;;;;4972351;28;20072;-77
2022/02/13 08:34:34;;;;;;;10.13;4.63;;;0.50;99.90;;;;;;4974070;28;20027;-78
2022/02/13 08:37:00;;;;;;;6.77;4.20;;;0.60;99.90;;;;;;4972903;28;20534;-78
2022/02/13 08:39:25;;;;;;;10.17;5.43;;;0.60;99.90;;;;;;4973706;28;20420;-77
2022/02/13 08:41:51;;;;;;;9.37;5.13;;;0.70;99.90;;;;;;4973017;28;20385;-77
2022/02/13 08:44:17;;;;;;;9.47;4.80;;;0.70;99.90;;;;;;4972518;28;20480;-78
2022/02/13 08:46:43;;;;;;;9.33;5.03;;;0.80;99.90;;;;;;4973024;28;20065;-77
2022/02/13 08:49:09;;;;;;;12.00;5.30;;;0.90;99.90;;;;;;4971996;28;20033;-78
2022/02/13 08:51:37;;;;;;;12.07;5.57;;;0.90;99.90;;;;;;4970883;28;20030;-78
2022/02/13 08:54:03;;;;;;;11.20;5.67;;;1.00;99.90;;;;;;4971607;28;20031;-77
2022/02/13 08:56:28;;;;;;;10.50;5.80;;;1.10;99.90;;;;;;4972419;28;20417;-78
2022/02/13 08:58:55;;;;;;;11.93;5.93;;;1.10;99.90;;;;;;4972504;28;20034;-78
2022/02/13 09:01:22;;;;;;;12.43;5.77;;;1.20;99.90;;;;;;4982152;28;20026;-78
2022/02/13 09:03:47;;;;;;;12.00;6.23;;;1.30;99.90;;;;;;4981679;28;20484;-78
2022/02/13 09:06:13;;;;;;;10.90;5.70;;;1.40;99.90;;;;;;4981047;28;20038;-78
2022/02/13 09:08:41;;;;;;;11.80;6.17;;;1.50;99.90;;;;;;4973987;28;20035;-79
2022/02/13 09:11:07;;;;;;;13.67;6.50;;;1.60;99.90;;;;;;4985618;28;20030;-78
2022/02/13 09:13:33;;;;;;;10.47;6.10;;;1.70;99.90;;;;;;4973108;28;20035;-78
2022/02/13 09:15:59;;;;;;;14.13;6.27;;;1.80;99.90;;;;;;4974210;28;20027;-78
2022/02/13 09:18:24;;;;;;;14.80;6.63;;;1.90;99.90;;;;;;4973472;28;20145;-78
2022/02/13 09:20:50;;;;;;;12.47;7.03;;;1.90;99.90;;;;;;4975942;28;20039;-79
2022/02/13 09:23:23;;;;;;;12.43;6.70;;;1.90;99.90;;;;;;4992596;28;20022;-78
2022/02/13 09:25:49;;;;;;;13.30;6.10;;;2.00;99.90;;;;;;4975728;28;20117;-78
2022/02/13 09:28:16;;;;;;;12.70;6.77;;;2.10;99.90;;;;;;4974964;28;20395;-78
2022/02/13 09:30:46;;;;;;;11.53;6.70;;;2.10;99.90;;;;;;4975577;28;20026;-77
2022/02/13 09:33:16;;;;;;;14.73;7.30;;;2.40;99.90;;;;;;4975121;28;20529;-78
2022/02/13 09:35:43;;;;;;;15.30;7.40;;;2.50;99.90;;;;;;4975559;28;20026;-78
2022/02/13 09:38:11;;;;;;;11.17;6.40;;;2.60;99.90;;;;;;4977445;28;20027;-78
2022/02/13 09:40:37;;;;;;;16.33;7.00;;;2.70;99.90;;;;;;4978877;28;20030;-78
2022/02/13 09:43:03;;;;;;;10.87;6.30;;;2.70;99.90;;;;;;4978715;28;20072;-78
2022/02/13 09:45:31;;;;;;;12.50;6.50;;;2.70;99.90;;;;;;4978404;28;20030;-78
2022/02/13 09:48:03;;;;;;;11.67;6.50;;;2.80;99.90;;;;;;4978915;28;20375;-78
2022/02/13 09:50:30;;;;;;;11.60;6.60;;;2.70;99.90;;;;;;4978553;28;20026;-78
2022/02/13 09:52:56;;;;;;;10.07;5.80;;;2.80;99.90;;;;;;4978766;28;20501;-77
2022/02/13 09:55:25;;;;;;;10.63;6.20;;;2.70;99.90;;;;;;4977893;28;20058;-77
2022/02/13 09:57:59;;;;;;;16.83;6.30;;;2.80;99.90;;;;;;4978678;28;20026;-79
2022/02/13 10:00:45;;;;;;;13.83;6.63;;;2.80;99.90;;;;;;4978060;28;20125;-78
2022/02/13 10:03:42;;;;;;;12.80;7.10;;;2.80;99.90;;;;;;4994638;28;20068;-78
2022/02/13 10:06:14;;;;;;;11.73;6.50;;;2.90;99.90;;;;;;4982050;28;20129;-77
2022/02/13 10:08:44;;;;;;;11.93;6.50;;;3.00;99.90;;;;;;4978417;28;20077;-78
2022/02/13 10:11:17;;;;;;;10.97;6.40;;;3.20;99.90;;;;;;4995231;28;20026;-77
2022/02/13 10:13:46;;;;;;;10.17;6.40;;;3.40;99.90;;;;;;4978564;28;20034;-78
2022/02/13 10:16:23;;;;;;;12.03;6.20;;;3.50;99.90;;;;;;4997297;28;20483;-76
2022/02/13 10:18:51;;;;;;;10.33;6.40;;;3.50;99.90;;;;;;4977894;28;20084;-76
2022/02/13 10:21:39;;;;;;;14.57;6.97;;;3.60;99.90;;;;;;4977614;28;20537;-76
2022/02/13 10:24:20;;;;;;;13.30;6.40;;;3.70;99.90;;;;;;4977952;28;20026;-77
2022/02/13 10:27:11;;;;;;;12.83;6.43;;;3.90;99.90;;;;;;4978294;28;20026;-77
2022/02/13 10:29:42;;;;;;;10.70;6.40;;;4.00;99.90;;;;;;4995786;28;20018;-79
2022/02/13 10:32:18;;;;;;;13.18;6.13;;;4.00;99.90;;;;;;4995720;28;20109;-79
2022/02/13 10:35:03;;;;;;;11.60;6.50;;;4.00;99.90;;;;;;4978393;28;20483;-78
2022/02/13 10:37:47;;;;;;;12.10;6.53;;;3.90;99.90;;;;;;4977377;28;20097;-77
2022/02/13 10:40:17;;;;;;;13.33;6.60;;;3.90;99.90;;;;;;4977368;28;20034;-78
2022/02/13 10:42:43;;;;;;;11.70;6.27;;;4.10;99.90;;;;;;4995748;28;20061;-78
2022/02/13 10:45:19;;;;;;;14.87;6.67;;;4.20;99.90;;;;;;4995049;28;20027;-80
2022/02/13 10:47:46;;;;;;;11.43;6.77;;;4.20;99.90;;;;;;4995399;28;20077;-78
2022/02/13 10:50:17;;;;;;;16.47;7.10;;;4.30;99.90;;;;;;4995029;28;20034;-79
2022/02/13 10:52:49;;;;;;;13.70;6.93;;;4.20;99.90;;;;;;4978388;28;20026;-78
2022/02/13 10:55:15;;;;;;;;;;;4.30;99.90;;;;;;4995328;28;20041;-78
2022/02/13 10:57:43;;;;;;;10.20;5.70;;;4.70;99.90;;;;;;4976701;28;20287;-78
2022/02/13 11:00:14;;;;;;;10.50;5.80;;;4.90;99.90;;;;;;4978226;28;20073;-78
2022/02/13 11:02:40;;;;;;;14.77;6.43;;;5.00;99.90;;;;;;4984449;28;20117;-78
2022/02/13 11:05:09;;;;;;;13.03;6.30;;;5.10;99.90;;;;;;4977522;28;20026;-78
2022/02/13 11:07:40;;;;;;;11.53;5.73;;;5.30;99.90;;;;;;4977358;28;20096;-77
2022/02/13 11:10:12;;;;;;;10.63;5.53;;;5.40;99.90;;;;;;4995109;28;20141;-78
2022/02/13 11:12:38;;;;;;;10.95;5.60;;;5.70;99.90;;;;;;4995124;28;20026;-78
2022/02/13 11:15:18;;;;;;;13.07;6.30;;;5.80;99.90;;;;;;4982728;28;20116;-79
2022/02/13 11:17:46;;;;;;;10.70;5.50;;;5.90;99.90;;;;;;4978849;28;20407;-79
2022/02/13 11:20:14;;;;;;;9.50;5.87;;;6.10;99.90;;;;;;4993710;28;20054;-80
2022/02/13 11:22:41;;;;;;;11.80;6.37;;;6.10;99.90;;;;;;4986599;28;20030;-77
2022/02/13 11:25:08;;;;;;;12.73;5.63;;;6.10;99.90;;;;;;4993493;28;20104;-76
2022/02/13 11:28:00;;;;;;;11.57;5.83;;;6.20;99.90;;;;;;4979473;28;20030;-76
2022/02/13 11:30:45;;;;;;;10.43;5.63;;;6.40;99.90;;;;;;4990463;28;20022;-76
2022/02/13 11:33:35;;;;;;;12.97;5.93;;;6.40;99.90;;;;;;5004497;28;20037;-79
2022/02/13 11:36:04;;;;;;;12.40;6.30;;;6.60;99.90;;;;;;4988157;28;20045;-79
2022/02/13 11:38:48;;;;;;;11.97;5.50;;;6.60;99.90;;;;;;4981074;28;20395;-77
2022/02/13 11:41:41;;;;;;;12.60;6.07;;;6.70;99.90;;;;;;4979845;28;20034;-77
2022/02/13 11:44:08;;;;;;;12.10;6.17;;;6.80;99.90;;;;;;4996513;28;20034;-76
2022/02/13 11:46:36;;;;;;;10.50;5.07;;;6.90;99.90;;;;;;4993098;28;20025;-76
2022/02/13 11:49:08;;;;;;;12.00;6.03;;;6.90;99.90;;;;;;4993605;28;20069;-75
2022/02/13 11:51:45;;;;;;;9.73;5.40;;;7.10;99.90;;;;;;4977090;28;20471;-79
2022/02/13 11:54:46;;;;;;;12.70;5.40;;;7.30;99.50;;;;;;4997424;28;20028;-77
2022/02/13 11:57:15;;;;;;;12.67;5.70;;;7.40;99.30;;;;;;4977882;28;20026;-75
2022/02/13 11:59:51;;;;;;;10.90;5.10;;;7.50;99.10;;;;;;5001650;28;20049;-77
2022/02/13 12:02:37;;;;;;;9.97;5.57;;;7.50;98.70;;;;;;4980438;28;20030;-75
2022/02/13 12:05:06;;;;;;;10.50;5.07;;;7.70;97.80;;;;;;4972730;28;20023;-76
2022/02/13 12:07:37;;;;;;;11.37;5.17;;;7.80;98.10;;;;;;4992451;28;20311;-76
2022/02/13 12:10:09;;;;;;;9.05;5.30;;;7.90;97.80;;;;;;4979717;28;20113;-76
2022/02/13 12:12:35;;;;;;;9.70;5.30;;;8.00;97.50;;;;;;4975314;28;20030;-77
2022/02/13 12:15:01;;;;;;;9.70;5.50;;;8.20;96.40;;;;;;4998016;28;20030;-81
2022/02/13 12:17:28;;;;;;;9.95;5.20;;;8.40;96.70;;;;;;4976235;28;20038;-81
2022/02/13 12:20:11;;;;;;;8.40;5.03;;;8.50;97.60;;;;;;4975907;28;20062;-81
2022/02/13 12:22:38;;;;;;;11.93;5.40;;;8.70;96.20;;;;;;4976959;28;20033;-80
2022/02/13 12:25:09;;;;;;;10.10;4.93;;;9.00;95.90;;;;;;4975747;28;20026;-80
2022/02/13 12:27:36;;;;;;;11.93;5.45;;;9.20;94.30;;;;;;4998828;28;20041;-82
2022/02/13 12:30:08;;;;;;;9.30;5.45;;;9.40;93.40;;;;;;4976452;28;20026;-82
2022/02/13 12:32:42;;;;;;;11.23;5.60;;;9.60;92.20;;;;;;4978879;28;20034;-80
2022/02/13 12:35:10;;;;;;;11.38;4.70;;;9.90;91.30;;;;;;4994379;28;20022;-81
2022/02/13 12:37:48;;;;;;;9.73;5.10;;;10.00;90.50;;;;;;4978517;28;20440;-81
2022/02/13 12:40:17;;;;;;;9.23;4.78;;;10.20;90.00;;;;;;4981587;28;20240;-82
2022/02/13 12:42:45;;;;;;;10.50;4.50;;;10.40;90.00;;;;;;5001229;28;20038;-82
2022/02/13 12:45:13;;;;;;;9.27;4.40;;;10.60;90.20;;;;;;4986976;28;20617;-81
2022/02/13 12:47:41;;;;;;;10.13;4.63;;;10.90;89.20;;;;;;4977957;28;20034;-82
2022/02/13 12:50:16;;;;;;;10.07;5.05;;;11.10;83.70;;;;;;4994518;28;20034;-81
2022/02/13 12:52:43;;;;;;;12.05;4.47;;;11.30;84.10;;;;;;4976057;28;20034;-82